Time;durP1;ratioP1;P1;durP2;ratioP2;P2;SDS_P1;SDS_P2;PMS_P1;PMS_P2;Temp;Humidity;BMP_temperature;BMP_pressure;BME280_temperature;BME280_humidity;BME280_pressure;Samples;Min_cycle;Max_cycle;Signal;HPM_P1;HPM_P2
2021/08/24 00:01:58;;;;;;;16.48;8.13;;;11.00;99.90;;;;;;5033088;28;20529;-79
2021/08/24 00:04:24;;;;;;;12.48;8.20;;;11.00;99.90;;;;;;5046683;28;20039;-79
2021/08/24 00:06:49;;;;;;;17.00;8.88;;;11.00;99.90;;;;;;5053879;28;20393;-79
2021/08/24 00:09:15;;;;;;;9.65;7.70;;;10.90;99.90;;;;;;5054060;28;20059;-79
2021/08/24 00:11:41;;;;;;;15.23;8.23;;;10.90;99.90;;;;;;5052517;28;20025;-79
2021/08/24 00:14:07;;;;;;;9.85;7.63;;;10.90;99.90;;;;;;5045828;28;20025;-79
2021/08/24 00:16:34;;;;;;;10.50;7.55;;;10.80;99.90;;;;;;5032689;28;20448;-79
2021/08/24 00:18:59;;;;;;;10.70;7.63;;;10.70;99.90;;;;;;5033941;28;20021;-79
2021/08/24 00:21:25;;;;;;;10.25;7.32;;;10.60;99.90;;;;;;5033958;28;20083;-79
2021/08/24 00:23:51;;;;;;;10.80;7.72;;;10.60;99.90;;;;;;5033763;28;20033;-79
2021/08/24 00:26:17;;;;;;;12.25;7.55;;;10.50;99.90;;;;;;5033557;28;20028;-79
2021/08/24 00:28:43;;;;;;;10.77;8.48;;;10.50;99.90;;;;;;5032592;28;20025;-79
2021/08/24 00:31:09;;;;;;;10.40;8.48;;;10.50;99.90;;;;;;5033818;28;20024;-79
2021/08/24 00:33:35;;;;;;;9.18;6.95;;;10.50;99.90;;;;;;5032283;28;20017;-79
2021/08/24 00:36:00;;;;;;;11.93;7.32;;;10.40;99.90;;;;;;5050630;28;20101;-79
2021/08/24 00:38:27;;;;;;;11.05;8.00;;;10.40;99.90;;;;;;5053552;28;20036;-79
2021/08/24 00:41:01;;;;;;;16.30;8.57;;;10.40;99.90;;;;;;5052225;28;20037;-79
2021/08/24 00:43:29;;;;;;;10.43;7.93;;;10.30;99.90;;;;;;5053342;28;20082;-79
2021/08/24 00:46:18;;;;;;;16.40;8.57;;;10.30;99.90;;;;;;5037584;28;20034;-79
2021/08/24 00:48:44;;;;;;;13.65;9.30;;;10.20;99.90;;;;;;5033474;28;20049;-79
2021/08/24 00:51:12;;;;;;;12.43;9.13;;;10.20;99.90;;;;;;5033354;28;20471;-79
2021/08/24 00:53:38;;;;;;;11.43;8.85;;;10.20;99.90;;;;;;5031881;28;20025;-79
2021/08/24 00:56:06;;;;;;;12.45;8.95;;;10.10;99.90;;;;;;5043762;28;20037;-79
2021/08/24 00:58:32;;;;;;;12.52;8.60;;;10.10;99.90;;;;;;5052989;28;20067;-79
2021/08/24 01:00:58;;;;;;;12.82;8.93;;;10.10;99.90;;;;;;5051864;28;20126;-79
2021/08/24 01:03:30;;;;;;;13.07;9.35;;;10.10;99.90;;;;;;5053079;28;20727;-79
2021/08/24 01:06:03;;;;;;;15.23;9.33;;;10.10;99.90;;;;;;5044125;28;20033;-79
2021/08/24 01:08:36;;;;;;;14.82;10.18;;;10.10;99.90;;;;;;5034078;28;20091;-79
2021/08/24 01:11:46;;;;;;;36.63;11.35;;;10.10;99.90;;;;;;5032105;28;20131;-79
2021/08/24 01:14:22;;;;;;;14.65;9.07;;;10.10;99.90;;;;;;5032344;28;20021;-79
2021/08/24 01:16:56;;;;;;;16.13;8.95;;;10.10;99.90;;;;;;5044834;28;20029;-79
2021/08/24 01:19:59;;;;;;;13.80;9.13;;;10.10;99.90;;;;;;5052856;28;20105;-79
2021/08/24 01:22:51;;;;;;;14.77;8.48;;;10.00;99.90;;;;;;5051313;28;20393;-79
2021/08/24 01:25:54;;;;;;;13.15;9.38;;;10.00;99.90;;;;;;5043371;28;20041;-79
2021/08/24 01:28:46;;;;;;;13.15;9.00;;;10.00;99.90;;;;;;5014391;28;20445;-79
2021/08/24 01:31:42;;;;;;;17.92;9.57;;;10.00;99.90;;;;;;5032629;28;20474;-79
2021/08/24 01:34:23;;;;;;;13.23;9.65;;;10.00;99.90;;;;;;5032270;28;20018;-79
2021/08/24 01:37:01;;;;;;;16.00;9.20;;;10.00;99.90;;;;;;5039043;28;20066;-79
2021/08/24 01:39:49;;;;;;;12.15;8.80;;;9.90;99.90;;;;;;5052411;28;20104;-79
2021/08/24 01:42:18;;;;;;;13.77;9.82;;;9.80;99.90;;;;;;5051963;28;20511;-79
2021/08/24 01:44:53;;;;;;;14.82;8.93;;;9.90;99.90;;;;;;5050785;28;20082;-79
2021/08/24 01:47:42;;;;;;;15.25;9.77;;;9.70;99.90;;;;;;5043855;28;20029;-79
2021/08/24 01:50:15;;;;;;;17.08;10.02;;;9.60;99.90;;;;;;5032173;28;20144;-79
2021/08/24 01:52:52;;;;;;;13.45;10.10;;;9.60;99.90;;;;;;5032304;28;20033;-79
2021/08/24 01:55:25;;;;;;;16.05;11.18;;;9.60;99.90;;;;;;5031958;28;20033;-79
2021/08/24 01:58:03;;;;;;;19.77;11.90;;;9.60;99.90;;;;;;5041467;28;20017;-79
2021/08/24 02:00:32;;;;;;;17.23;9.40;;;9.50;99.90;;;;;;5052010;28;20382;-79
2021/08/24 02:03:05;;;;;;;17.88;10.23;;;9.50;99.90;;;;;;5051974;28;20040;-79
2021/08/24 02:05:40;;;;;;;17.38;9.45;;;9.50;99.90;;;;;;5051712;28;20052;-79
2021/08/24 02:08:11;;;;;;;13.73;9.15;;;9.40;99.90;;;;;;5042983;28;20052;-80
2021/08/24 02:10:39;;;;;;;13.73;9.25;;;9.40;99.90;;;;;;5032027;28;20021;-80
2021/08/24 02:13:05;;;;;;;17.15;10.23;;;9.40;99.90;;;;;;5031856;28;20029;-80
2021/08/24 02:15:40;;;;;;;14.05;10.38;;;9.30;99.90;;;;;;5031665;28;20044;-80
2021/08/24 02:18:07;;;;;;;15.90;10.23;;;9.30;99.90;;;;;;5037451;28;20385;-80
2021/08/24 02:20:39;;;;;;;12.38;8.93;;;9.30;99.90;;;;;;5048927;28;20032;-80
2021/08/24 02:23:12;;;;;;;13.30;9.13;;;9.20;99.90;;;;;;5031949;28;20037;-80
2021/08/24 02:25:42;;;;;;;15.48;9.43;;;9.20;99.90;;;;;;5030063;28;20049;-80
2021/08/24 02:28:12;;;;;;;13.00;8.30;;;9.20;99.90;;;;;;5034763;28;20025;-81
2021/08/24 02:31:03;;;;;;;12.75;8.20;;;9.10;99.90;;;;;;5051755;28;20017;-80
2021/08/24 02:33:36;;;;;;;11.05;8.18;;;9.10;99.90;;;;;;5047071;28;20030;-80
2021/08/24 02:36:03;;;;;;;14.13;10.05;;;9.00;99.90;;;;;;5031360;28;20268;-81
2021/08/24 02:38:35;;;;;;;19.77;11.32;;;9.00;99.90;;;;;;5034749;28;20033;-80
2021/08/24 02:41:26;;;;;;;14.13;9.13;;;8.90;99.90;;;;;;5051605;28;20021;-80
2021/08/24 02:43:51;;;;;;;10.45;8.10;;;8.90;99.90;;;;;;5050116;28;20029;-80
2021/08/24 02:46:21;;;;;;;8.98;6.13;;;8.80;99.90;;;;;;5033287;28;20044;-80
2021/08/24 02:48:54;;;;;;;6.68;5.53;;;8.80;99.90;;;;;;5032802;28;20059;-80
2021/08/24 02:51:21;;;;;;;5.40;4.80;;;8.80;99.90;;;;;;5050281;28;20056;-80
2021/08/24 02:54:08;;;;;;;5.90;5.15;;;8.80;99.90;;;;;;5050040;28;20033;-80
2021/08/24 02:56:34;;;;;;;6.20;4.60;;;8.70;99.90;;;;;;5050134;28;20021;-80
2021/08/24 02:59:00;;;;;;;6.82;5.50;;;8.70;99.90;;;;;;5049257;28;20112;-80
2021/08/24 03:01:26;;;;;;;6.78;5.07;;;8.70;99.90;;;;;;5030307;28;20698;-80
2021/08/24 03:03:51;;;;;;;8.18;5.47;;;8.70;99.90;;;;;;5031219;28;20030;-80
2021/08/24 03:06:17;;;;;;;7.35;6.07;;;8.70;99.90;;;;;;5031269;28;20029;-80
2021/08/24 03:08:42;;;;;;;8.75;7.07;;;8.70;99.90;;;;;;5030999;28;20021;-80
2021/08/24 03:11:09;;;;;;;11.38;6.90;;;8.70;99.90;;;;;;5047561;28;20064;-79
2021/08/24 03:13:53;;;;;;;8.65;6.35;;;8.80;99.90;;;;;;5051300;28;20431;-79
2021/08/24 03:16:29;;;;;;;9.93;7.70;;;8.80;99.90;;;;;;5050146;28;20028;-80
2021/08/24 03:19:00;;;;;;;8.35;6.03;;;8.80;99.90;;;;;;5049910;28;20501;-80
2021/08/24 03:21:30;;;;;;;9.10;6.55;;;8.70;99.90;;;;;;5034973;28;20079;-80
2021/08/24 03:23:56;;;;;;;9.02;6.78;;;8.70;99.90;;;;;;5029816;28;20040;-79
2021/08/24 03:26:29;;;;;;;11.50;7.63;;;8.60;99.90;;;;;;5031163;28;20029;-79
2021/08/24 03:28:55;;;;;;;26.10;14.25;;;8.60;99.90;;;;;;5031358;28;20025;-79
2021/08/24 03:31:21;;;;;;;18.15;12.02;;;8.50;99.90;;;;;;5043396;28;20021;-79
2021/08/24 03:33:48;;;;;;;15.73;9.35;;;8.50;99.90;;;;;;5052814;28;20499;-79
2021/08/24 03:36:14;;;;;;;9.52;8.00;;;8.60;99.90;;;;;;5053424;28;20457;-79
2021/08/24 03:38:40;;;;;;;10.80;7.65;;;8.60;99.90;;;;;;5054709;28;20107;-80
2021/08/24 03:41:08;;;;;;;9.05;7.15;;;8.60;99.90;;;;;;5053684;28;20052;-79
2021/08/24 03:43:34;;;;;;;10.43;7.88;;;8.60;99.90;;;;;;5053278;28;20544;-80
2021/08/24 03:45:59;;;;;;;9.60;7.22;;;8.60;99.90;;;;;;5054196;28;20428;-79
2021/08/24 03:48:25;;;;;;;11.85;7.28;;;8.60;99.90;;;;;;5054481;28;20017;-80
2021/08/24 03:50:51;;;;;;;9.73;7.15;;;8.60;99.90;;;;;;5050393;28;20052;-80
2021/08/24 03:53:16;;;;;;;9.70;6.95;;;8.60;99.90;;;;;;5033301;28;20496;-79
2021/08/24 03:55:42;;;;;;;8.77;6.35;;;8.50;99.90;;;;;;5034184;28;20033;-80
2021/08/24 03:58:08;;;;;;;9.60;6.95;;;8.50;99.90;;;;;;5034327;28;20032;-80
2021/08/24 04:00:34;;;;;;;10.85;6.78;;;8.50;99.90;;;;;;5034337;28;20022;-79
2021/08/24 04:03:00;;;;;;;7.40;6.30;;;8.40;99.90;;;;;;5050121;28;20036;-80
2021/08/24 04:05:26;;;;;;;8.77;6.40;;;8.40;99.90;;;;;;5052648;28;20033;-80
2021/08/24 04:07:52;;;;;;;7.43;5.85;;;8.40;99.90;;;;;;5052556;28;20032;-80
2021/08/24 04:10:19;;;;;;;7.78;6.30;;;8.30;99.90;;;;;;5054082;28;20025;-80
2021/08/24 04:12:44;;;;;;;15.07;7.07;;;8.30;99.90;;;;;;5040177;28;20033;-80
2021/08/24 04:15:10;;;;;;;9.32;6.53;;;8.30;99.90;;;;;;5033919;28;20140;-79
2021/08/24 04:17:38;;;;;;;14.00;7.22;;;8.20;99.90;;;;;;5033982;28;20510;-80
2021/08/24 04:20:06;;;;;;;12.93;6.68;;;8.20;99.90;;;;;;5033978;28;20074;-79
2021/08/24 04:22:33;;;;;;;9.98;6.80;;;8.20;99.90;;;;;;5042145;28;20020;-80
2021/08/24 04:24:59;;;;;;;8.98;6.90;;;8.10;99.90;;;;;;5054052;28;20033;-79
2021/08/24 04:27:24;;;;;;;9.32;7.35;;;8.10;99.90;;;;;;5052452;28;20032;-80
2021/08/24 04:29:50;;;;;;;6.85;5.25;;;8.10;99.90;;;;;;5053774;28;20100;-79
2021/08/24 04:32:24;;;;;;;8.98;6.38;;;8.20;99.90;;;;;;5050688;28;20033;-80
2021/08/24 04:34:49;;;;;;;8.68;6.22;;;8.20;99.90;;;;;;5033571;28;20026;-79
2021/08/24 04:37:15;;;;;;;10.27;6.57;;;8.20;99.90;;;;;;5033580;28;20500;-79
2021/08/24 04:39:40;;;;;;;9.23;6.70;;;8.20;99.90;;;;;;5033647;28;20071;-79
2021/08/24 04:42:06;;;;;;;8.43;6.82;;;8.20;99.90;;;;;;5033558;28;20080;-79
2021/08/24 04:44:32;;;;;;;8.95;6.43;;;8.20;99.90;;;;;;5051957;28;20025;-79
2021/08/24 04:46:57;;;;;;;9.50;6.22;;;8.20;99.90;;;;;;5052063;28;20508;-79
2021/08/24 04:49:23;;;;;;;9.63;7.15;;;8.20;99.90;;;;;;5052018;28;20021;-79
2021/08/24 04:51:50;;;;;;;8.20;6.18;;;8.20;99.90;;;;;;5053401;28;20100;-79
2021/08/24 04:54:17;;;;;;;10.25;5.82;;;8.30;99.90;;;;;;5039423;28;20026;-79
2021/08/24 04:56:43;;;;;;;7.88;6.15;;;8.30;99.90;;;;;;5031992;28;20021;-80
2021/08/24 04:59:08;;;;;;;9.18;6.68;;;8.30;99.90;;;;;;5033203;28;20109;-80
2021/08/24 05:01:34;;;;;;;9.50;7.65;;;8.30;99.90;;;;;;5033250;28;20017;-79
2021/08/24 05:03:59;;;;;;;13.55;8.55;;;8.30;99.90;;;;;;5041019;28;20477;-80
2021/08/24 05:06:25;;;;;;;11.95;8.73;;;8.40;99.90;;;;;;5052890;28;20028;-80
2021/08/24 05:08:51;;;;;;;10.93;7.47;;;8.40;99.90;;;;;;5052833;28;20499;-80
2021/08/24 05:11:16;;;;;;;9.02;7.18;;;8.50;99.90;;;;;;5051751;28;20104;-80
2021/08/24 05:13:42;;;;;;;9.32;7.00;;;8.60;99.90;;;;;;5049515;28;20026;-79
2021/08/24 05:16:09;;;;;;;8.82;5.68;;;8.70;99.90;;;;;;5050475;28;20040;-80
2021/08/24 05:18:35;;;;;;;12.27;6.75;;;8.80;99.90;;;;;;5052854;28;20096;-80
2021/08/24 05:21:07;;;;;;;11.82;6.95;;;8.80;99.90;;;;;;5051725;28;20052;-80
2021/08/24 05:23:33;;;;;;;10.10;7.13;;;8.90;99.90;;;;;;5051473;28;20031;-79
2021/08/24 05:25:59;;;;;;;10.18;6.93;;;9.00;99.90;;;;;;5037643;28;20029;-80
2021/08/24 05:28:25;;;;;;;9.20;7.50;;;9.10;99.90;;;;;;5032625;28;20021;-79
2021/08/24 05:30:51;;;;;;;16.70;8.43;;;9.20;99.90;;;;;;5032666;28;20533;-80
2021/08/24 05:33:16;;;;;;;10.45;7.60;;;9.40;99.90;;;;;;5032690;28;20650;-79
2021/08/24 05:35:42;;;;;;;10.77;8.35;;;9.50;99.90;;;;;;5031636;28;20404;-79
2021/08/24 05:38:07;;;;;;;13.77;9.18;;;9.60;99.90;;;;;;5032439;28;20033;-80
2021/08/24 05:40:33;;;;;;;12.00;8.40;;;9.70;99.90;;;;;;5032513;28;20486;-80
2021/08/24 05:42:59;;;;;;;13.48;9.00;;;9.80;99.90;;;;;;5032477;28;20078;-80
2021/08/24 05:45:24;;;;;;;14.73;11.02;;;10.00;99.90;;;;;;5035843;28;20117;-79
2021/08/24 05:47:50;;;;;;;13.95;9.48;;;10.10;99.90;;;;;;5044035;28;20022;-79
2021/08/24 05:50:16;;;;;;;17.65;11.20;;;10.20;99.90;;;;;;5032331;28;20029;-80
2021/08/24 05:52:41;;;;;;;16.08;10.07;;;10.40;99.90;;;;;;5032348;28;20032;-80
2021/08/24 05:55:08;;;;;;;13.95;9.52;;;10.50;99.90;;;;;;5032052;28;20371;-80
2021/08/24 05:57:33;;;;;;;15.75;9.35;;;10.60;99.90;;;;;;5050445;28;20657;-80
2021/08/24 05:59:59;;;;;;;13.20;10.18;;;10.80;99.90;;;;;;5051985;28;20033;-80
2021/08/24 06:02:24;;;;;;;15.48;10.13;;;10.90;99.90;;;;;;5048714;28;20032;-80
2021/08/24 06:04:50;;;;;;;13.32;11.10;;;11.10;99.90;;;;;;5051632;28;20499;-80
2021/08/24 06:07:15;;;;;;;16.88;11.27;;;11.30;99.90;;;;;;5037753;28;20494;-80
2021/08/24 06:09:41;;;;;;;16.02;11.35;;;11.40;99.90;;;;;;5031732;28;20026;-80
2021/08/24 06:12:07;;;;;;;11.88;8.93;;;11.50;99.90;;;;;;5031717;28;20509;-80
2021/08/24 06:14:33;;;;;;;14.68;9.98;;;11.80;99.90;;;;;;5031590;28;20075;-80
2021/08/24 06:16:58;;;;;;;16.70;9.80;;;12.00;99.90;;;;;;5039797;28;20032;-81
2021/08/24 06:19:29;;;;;;;14.32;10.55;;;12.20;99.90;;;;;;5051738;28;20024;-79
2021/08/24 06:21:56;;;;;;;20.98;11.23;;;12.40;99.90;;;;;;5045055;28;20033;-80
2021/08/24 06:24:22;;;;;;;15.77;10.40;;;12.70;99.90;;;;;;5030132;28;20029;-80
2021/08/24 06:26:48;;;;;;;14.60;11.13;;;12.90;99.90;;;;;;5031491;28;20374;-80
2021/08/24 06:29:13;;;;;;;14.90;10.55;;;13.10;99.90;;;;;;5031989;28;20025;-80
2021/08/24 06:31:42;;;;;;;13.60;10.38;;;13.30;99.90;;;;;;5032234;28;20025;-80
2021/08/24 06:34:11;;;;;;;14.15;11.07;;;13.50;99.90;;;;;;5051349;28;20028;-80
2021/08/24 06:36:38;;;;;;;15.95;11.55;;;13.60;99.90;;;;;;5050192;28;20478;-80
2021/08/24 06:39:05;;;;;;;13.73;11.30;;;13.80;99.90;;;;;;5051502;28;20374;-80
2021/08/24 06:41:31;;;;;;;15.27;11.13;;;13.90;99.90;;;;;;5051447;28;20029;-80
2021/08/24 06:43:57;;;;;;;14.95;10.35;;;14.00;99.90;;;;;;5034113;28;20056;-80
2021/08/24 06:46:22;;;;;;;14.63;9.57;;;14.20;99.90;;;;;;5033342;28;20029;-80
2021/08/24 06:48:48;;;;;;;14.13;10.82;;;14.40;99.90;;;;;;5046805;28;20082;-80
2021/08/24 06:51:13;;;;;;;15.15;10.68;;;14.60;99.90;;;;;;5045707;28;20052;-80
2021/08/24 06:53:41;;;;;;;13.65;10.52;;;14.70;99.90;;;;;;5034644;28;20029;-80
2021/08/24 06:56:11;;;;;;;20.45;13.32;;;14.90;99.90;;;;;;5039612;28;20034;-80
2021/08/24 06:58:41;;;;;;;13.20;10.07;;;15.20;99.90;;;;;;5030319;28;20080;-81
2021/08/24 07:01:12;;;;;;;13.98;10.70;;;15.40;99.90;;;;;;5031405;28;20033;-81
2021/08/24 07:03:37;;;;;;;12.60;9.10;;;15.60;99.90;;;;;;5031454;28;20037;-80
2021/08/24 07:06:03;;;;;;;13.80;9.68;;;15.90;99.90;;;;;;5036313;28;20036;-80
2021/08/24 07:08:28;;;;;;;12.05;8.85;;;16.00;99.90;;;;;;5052637;28;20493;-80
2021/08/24 07:10:54;;;;;;;10.85;8.85;;;16.20;99.90;;;;;;5035838;28;20552;-81
2021/08/24 07:13:20;;;;;;;12.27;7.85;;;16.40;99.90;;;;;;5035203;28;20477;-80
2021/08/24 07:15:46;;;;;;;12.25;8.40;;;16.60;99.90;;;;;;5033658;28;20040;-81
2021/08/24 07:18:12;;;;;;;11.82;6.63;;;16.70;99.90;;;;;;5054357;28;20033;-83
2021/08/24 07:20:37;;;;;;;14.35;6.38;;;16.90;99.90;;;;;;5054942;28;20485;-83
2021/08/24 07:23:03;;;;;;;5.78;4.88;;;17.10;99.90;;;;;;5055021;28;20167;-82
2021/08/24 07:25:31;;;;;;;7.97;4.82;;;17.30;99.90;;;;;;5053322;28;20029;-83
2021/08/24 07:27:57;;;;;;;5.07;4.13;;;17.50;99.90;;;;;;5038556;28;20029;-84
2021/08/24 07:30:24;;;;;;;5.28;3.33;;;17.50;99.90;;;;;;5033632;28;20493;-85
2021/08/24 07:32:49;;;;;;;7.68;3.40;;;17.60;99.90;;;;;;5035091;28;20108;-85
2021/08/24 07:35:17;;;;;;;7.07;3.17;;;17.90;99.90;;;;;;5034582;28;20502;-85
2021/08/24 07:37:43;;;;;;;2.95;2.25;;;18.00;99.90;;;;;;5044530;28;20052;-83
2021/08/24 07:40:10;;;;;;;6.55;3.15;;;18.30;99.90;;;;;;5054739;28;20057;-84
2021/08/24 07:42:37;;;;;;;5.15;2.85;;;18.40;99.90;;;;;;5054524;28;20025;-85
2021/08/24 07:45:03;;;;;;;4.47;2.78;;;18.60;99.90;;;;;;5054543;28;20029;-84
2021/08/24 07:47:29;;;;;;;4.88;3.15;;;18.70;99.90;;;;;;5047512;28;20456;-85
2021/08/24 07:49:54;;;;;;;6.55;2.92;;;18.80;99.90;;;;;;5034757;28;20021;-84
2021/08/24 07:52:20;;;;;;;4.30;2.40;;;19.10;99.90;;;;;;5034618;28;20022;-85
2021/08/24 07:54:46;;;;;;;11.70;2.95;;;19.20;99.90;;;;;;5036032;28;20026;-85
2021/08/24 07:57:11;;;;;;;10.13;3.70;;;19.30;99.90;;;;;;5034323;28;20029;-85
2021/08/24 07:59:37;;;;;;;4.45;2.75;;;19.40;99.90;;;;;;5052610;28;20032;-84
2021/08/24 08:02:02;;;;;;;7.63;3.28;;;19.30;99.90;;;;;;5054174;28;20029;-84
2021/08/24 08:04:29;;;;;;;4.22;2.83;;;19.50;99.90;;;;;;5054079;28;20028;-84
2021/08/24 08:06:55;;;;;;;4.68;3.00;;;19.60;99.90;;;;;;5053975;28;20221;-85
2021/08/24 08:09:20;;;;;;;7.13;3.22;;;19.80;99.90;;;;;;5039172;28;20120;-85
2021/08/24 08:11:51;;;;;;;4.70;3.33;;;19.80;99.90;;;;;;5052694;28;20025;-84
2021/08/24 08:14:17;;;;;;;4.75;2.65;;;19.90;99.90;;;;;;5054307;28;20075;-85
2021/08/24 08:16:43;;;;;;;6.07;3.55;;;20.00;99.90;;;;;;5053940;28;20547;-82
2021/08/24 08:19:09;;;;;;;10.68;3.65;;;20.10;99.90;;;;;;5053604;28;20040;-82
2021/08/24 08:21:36;;;;;;;5.60;2.97;;;20.10;99.90;;;;;;5035887;28;20026;-82
2021/08/24 08:24:03;;;;;;;4.90;2.80;;;20.20;99.90;;;;;;5032463;28;20474;-81
2021/08/24 08:26:30;;;;;;;8.98;2.85;;;20.10;99.90;;;;;;5033608;28;20035;-82
2021/08/24 08:28:55;;;;;;;6.60;3.20;;;20.20;99.90;;;;;;5033827;28;20100;-81
2021/08/24 08:31:23;;;;;;;7.65;2.38;;;20.30;99.90;;;;;;5044004;28;20124;-81
2021/08/24 08:33:49;;;;;;;3.00;2.38;;;20.20;99.90;;;;;;5053431;28;20392;-81
2021/08/24 08:36:15;;;;;;;5.53;2.55;;;20.40;99.90;;;;;;5053589;28;20032;-82
2021/08/24 08:38:41;;;;;;;6.50;2.95;;;20.40;99.90;;;;;;5053636;28;20092;-81
2021/08/24 08:41:23;;;;;;;5.10;3.05;;;20.70;99.90;;;;;;5052612;28;20040;-81
2021/08/24 08:43:59;;;;;;;5.20;2.78;;;20.80;99.90;;;;;;5047917;28;20029;-82
2021/08/24 08:46:53;;;;;;;6.10;2.33;;;21.10;99.90;;;;;;5033639;28;20026;-82
2021/08/24 08:49:21;;;;;;;4.10;2.85;;;21.20;99.90;;;;;;5033476;28;20017;-82
2021/08/24 08:51:58;;;;;;;5.72;2.42;;;21.20;99.90;;;;;;5042108;28;20114;-81
2021/08/24 08:54:42;;;;;;;4.88;2.08;;;21.00;99.90;;;;;;5052991;28;20486;-82
2021/08/24 08:57:18;;;;;;;4.65;2.10;;;20.80;99.90;;;;;;5051759;28;20025;-81
2021/08/24 09:00:15;;;;;;;4.57;2.05;;;20.60;99.90;;;;;;5053013;28;20017;-82
2021/08/24 09:02:51;;;;;;;2.90;1.98;;;20.70;99.90;;;;;;5034677;28;20042;-82
2021/08/24 09:05:20;;;;;;;2.50;2.00;;;20.80;99.90;;;;;;5047753;28;20582;-83
2021/08/24 09:07:50;;;;;;;4.07;2.42;;;20.80;99.90;;;;;;5052681;28;20036;-82
2021/08/24 09:10:25;;;;;;;3.17;2.33;;;21.10;99.90;;;;;;5051621;28;20485;-82
2021/08/24 09:13:04;;;;;;;3.40;2.20;;;21.20;99.90;;;;;;5052966;28;20045;-83
2021/08/24 09:15:39;;;;;;;3.78;1.63;;;21.30;99.90;;;;;;5049182;28;20150;-82
2021/08/24 09:18:10;;;;;;;3.92;2.30;;;21.50;99.90;;;;;;5051390;28;20025;-82
2021/08/24 09:20:43;;;;;;;4.93;2.53;;;22.00;99.90;;;;;;5053103;28;20484;-82
2021/08/24 09:23:12;;;;;;;7.25;2.05;;;22.00;99.90;;;;;;5052765;28;20163;-83
2021/08/24 09:25:52;;;;;;;8.05;2.58;;;22.10;99.90;;;;;;5048472;28;20079;-82
2021/08/24 09:28:28;;;;;;;7.47;2.28;;;22.40;99.90;;;;;;5051179;28;20040;-83
2021/08/24 09:30:54;;;;;;;4.30;2.17;;;22.40;99.90;;;;;;5051974;28;20032;-83
2021/08/24 09:33:21;;;;;;;3.22;2.13;;;22.20;99.90;;;;;;5052546;28;20025;-83
2021/08/24 09:35:48;;;;;;;4.53;2.40;;;21.90;99.90;;;;;;5039649;28;20513;-82
2021/08/24 09:38:19;;;;;;;4.43;3.15;;;22.00;99.90;;;;;;5032454;28;20025;-83
2021/08/24 09:40:52;;;;;;;2.55;1.77;;;22.30;99.90;;;;;;5031167;28;20136;-82
2021/08/24 09:43:37;;;;;;;3.77;2.43;;;22.20;99.90;;;;;;5031016;28;20403;-82
2021/08/24 09:46:17;;;;;;;4.40;2.50;;;22.40;99.90;;;;;;5040248;28;20063;-82
2021/08/24 09:49:05;;;;;;;2.92;2.03;;;22.40;99.90;;;;;;5052687;28;20066;-82
2021/08/24 09:51:45;;;;;;;3.60;2.03;;;22.60;99.90;;;;;;5052060;28;20013;-82
2021/08/24 09:54:20;;;;;;;4.97;2.00;;;23.00;99.90;;;;;;5051959;28;20049;-82
2021/08/24 09:56:51;;;;;;;2.60;1.80;;;23.10;99.90;;;;;;5039218;28;20079;-82
2021/08/24 09:59:26;;;;;;;8.82;4.28;;;23.10;99.90;;;;;;5032101;28;20037;-82
2021/08/24 10:01:52;;;;;;;3.00;1.65;;;23.30;99.90;;;;;;5031940;28;20083;-82
2021/08/24 10:04:18;;;;;;;8.80;2.10;;;23.30;99.90;;;;;;5031869;28;20033;-82
2021/08/24 10:06:56;;;;;;;2.60;1.73;;;23.40;99.90;;;;;;5039871;28;20028;-82
2021/08/24 10:09:40;;;;;;;3.83;1.90;;;23.30;99.90;;;;;;5031675;28;20108;-82
2021/08/24 10:12:27;;;;;;;3.40;1.75;;;23.10;99.90;;;;;;5031935;28;20053;-82
2021/08/24 10:14:54;;;;;;;6.15;2.47;;;23.00;99.90;;;;;;5030535;28;20498;-82
2021/08/24 10:17:28;;;;;;;6.50;1.98;;;22.70;99.90;;;;;;5036397;28;20072;-81
2021/08/24 10:19:56;;;;;;;3.55;2.25;;;22.80;99.90;;;;;;5034252;28;20056;-81
2021/08/24 10:22:30;;;;;;;3.45;1.80;;;22.80;99.90;;;;;;5049253;28;20029;-81
2021/08/24 10:25:07;;;;;;;8.55;2.08;;;23.30;99.90;;;;;;5051370;28;20029;-82
2021/08/24 10:27:35;;;;;;;4.32;2.30;;;23.60;99.90;;;;;;5051214;28;20111;-82
2021/08/24 10:30:09;;;;;;;2.75;2.10;;;24.20;99.90;;;;;;5031680;28;20025;-82
2021/08/24 10:32:56;;;;;;;2.97;2.00;;;24.30;99.90;;;;;;5031624;28;20026;-84
2021/08/24 10:35:39;;;;;;;4.03;2.05;;;24.70;99.90;;;;;;5031527;28;20425;-81
2021/08/24 10:38:04;;;;;;;3.83;2.20;;;24.80;99.90;;;;;;5047248;28;20029;-81
2021/08/24 10:40:42;;;;;;;3.83;2.15;;;24.80;99.90;;;;;;5051611;28;20021;-82
2021/08/24 10:43:10;;;;;;;4.20;2.50;;;24.80;99.90;;;;;;5054234;28;20021;-84
2021/08/24 10:45:39;;;;;;;7.82;2.13;;;24.60;99.90;;;;;;5054143;28;20512;-84
2021/08/24 10:48:18;;;;;;;4.95;2.35;;;24.70;99.90;;;;;;5054201;28;20112;-84
2021/08/24 10:51:08;;;;;;;7.00;2.25;;;24.70;99.90;;;;;;5034296;28;20045;-81
2021/08/24 10:53:42;;;;;;;3.70;1.77;;;24.60;99.90;;;;;;5049990;28;20025;-82
2021/08/24 10:56:13;;;;;;;5.03;2.13;;;24.80;99.90;;;;;;5049654;28;20049;-82
2021/08/24 10:59:08;;;;;;;2.42;1.50;;;24.80;99.90;;;;;;5049673;28;20029;-81
2021/08/24 11:01:45;;;;;;;5.55;2.28;;;24.80;99.90;;;;;;5052693;28;20111;-85
2021/08/24 11:04:41;;;;;;;3.80;1.73;;;25.10;99.90;;;;;;5052319;28;20037;-83
2021/08/24 11:07:15;;;;;;;3.15;2.08;;;25.40;99.90;;;;;;5051990;28;20481;-83
2021/08/24 11:10:10;;;;;;;3.67;2.20;;;26.00;99.90;;;;;;5049185;28;20040;-82
2021/08/24 11:12:57;;;;;;;3.38;1.90;;;26.50;99.90;;;;;;5050821;28;20113;-81
2021/08/24 11:15:51;;;;;;;4.40;2.28;;;26.90;99.90;;;;;;5043875;28;20024;-81
2021/08/24 11:18:31;;;;;;;2.97;1.95;;;26.70;99.90;;;;;;5051269;28;20515;-81
2021/08/24 11:21:07;;;;;;;6.38;2.22;;;26.40;99.90;;;;;;5050607;28;20400;-82
2021/08/24 11:23:41;;;;;;;2.83;1.90;;;26.60;99.90;;;;;;5051831;28;20028;-82
2021/08/24 11:26:19;;;;;;;3.60;1.90;;;26.90;99.90;;;;;;5051473;28;20039;-81
2021/08/24 11:29:06;;;;;;;5.65;1.75;;;27.10;99.90;;;;;;5051031;28;20025;-81
2021/08/24 11:31:46;;;;;;;2.47;1.65;;;27.40;99.90;;;;;;5044441;28;20071;-81
2021/08/24 11:34:24;;;;;;;7.13;2.45;;;27.30;99.90;;;;;;5051891;28;20116;-82
2021/08/24 11:37:19;;;;;;;3.65;2.30;;;26.70;99.90;;;;;;5051429;28;20037;-81
2021/08/24 11:39:52;;;;;;;4.40;2.30;;;26.70;99.90;;;;;;5049200;28;20041;-81
2021/08/24 11:42:27;;;;;;;5.88;2.42;;;26.60;99.90;;;;;;5051777;28;20040;-82
2021/08/24 11:44:56;;;;;;;2.95;2.15;;;26.60;99.90;;;;;;5050363;28;20032;-80
2021/08/24 11:47:40;;;;;;;7.88;2.28;;;27.10;99.90;;;;;;5051147;28;20029;-81
2021/08/24 11:50:13;;;;;;;3.47;1.88;;;27.20;99.90;;;;;;5044430;28;20094;-81
2021/08/24 11:53:04;;;;;;;2.40;1.85;;;27.00;99.90;;;;;;5049348;28;20060;-81
2021/08/24 11:55:42;;;;;;;4.68;2.25;;;26.70;99.90;;;;;;5049128;28;20029;-81
2021/08/24 11:58:31;;;;;;;4.50;2.63;;;27.00;99.90;;;;;;5048088;28;20040;-81
2021/08/24 12:01:04;;;;;;;3.70;2.10;;;27.40;99.90;;;;;;5049240;28;20591;-81
2021/08/24 12:06:43;;;;;;;8.63;2.75;;;27.40;99.90;;;;;;5050965;28;20072;-81
2021/08/24 12:09:46;;;;;;;5.22;2.42;;;27.60;99.90;;;;;;5050669;28;20027;-81
2021/08/24 12:12:58;;;;;;;4.67;2.40;;;27.80;99.90;;;;;;5046710;28;20086;-81
2021/08/24 12:24:23;;;;;;;3.50;2.15;;;27.90;99.90;;;;;;5050861;28;20122;-81
2021/08/24 12:26:55;;;;;;;6.65;2.13;;;27.60;99.90;;;;;;5040932;28;20025;-81
2021/08/24 12:29:46;;;;;;;6.63;1.92;;;28.00;99.90;;;;;;5050216;28;20028;-81
2021/08/24 12:32:38;;;;;;;2.88;1.77;;;28.90;99.90;;;;;;5049207;28;20063;-81
2021/08/24 12:35:28;;;;;;;2.78;2.20;;;29.00;99.90;;;;;;5050256;28;20652;-81
2021/08/24 12:37:59;;;;;;;6.18;2.47;;;28.90;99.90;;;;;;5049816;28;20036;-81
2021/08/24 12:40:24;;;;;;;7.05;2.15;;;28.70;99.90;;;;;;5049497;28;20025;-81
2021/08/24 12:43:02;;;;;;;8.68;2.63;;;28.10;99.90;;;;;;5050897;28;20070;-80
2021/08/24 12:45:33;;;;;;;2.70;2.17;;;28.30;99.90;;;;;;5046646;28;20051;-80
2021/08/24 12:48:16;;;;;;;4.57;2.20;;;28.20;99.90;;;;;;5047845;28;20503;-82
2021/08/24 12:51:06;;;;;;;3.90;2.28;;;27.00;99.90;;;;;;5043034;28;20056;-81
2021/08/24 12:53:43;;;;;;;5.10;2.10;;;27.70;99.90;;;;;;5050132;28;20025;-83
2021/08/24 12:56:11;;;;;;;4.10;2.47;;;28.80;99.90;;;;;;5048014;28;20044;-82
2021/08/24 12:58:50;;;;;;;4.32;2.45;;;29.00;99.90;;;;;;5048538;28;20057;-83
2021/08/24 13:01:22;;;;;;;4.45;2.35;;;29.50;99.90;;;;;;5050073;28;20120;-82
2021/08/24 13:04:00;;;;;;;3.67;2.55;;;29.40;99.90;;;;;;5049826;28;20025;-81
2021/08/24 13:06:29;;;;;;;6.95;2.60;;;29.60;99.90;;;;;;5048881;28;20025;-82
2021/08/24 13:09:32;;;;;;;4.00;2.92;;;29.20;99.90;;;;;;5048852;28;20080;-84
2021/08/24 13:12:20;;;;;;;4.00;2.30;;;28.70;99.90;;;;;;5049801;28;20025;-82
2021/08/24 13:14:53;;;;;;;3.40;2.33;;;28.90;99.90;;;;;;5032879;28;20017;-83
2021/08/24 13:17:43;;;;;;;6.20;2.40;;;28.60;99.90;;;;;;5032890;28;20041;-84
2021/08/24 13:20:24;;;;;;;3.90;2.63;;;28.20;99.90;;;;;;5032853;28;20410;-81
2021/08/24 13:22:54;;;;;;;13.10;2.65;;;28.20;99.90;;;;;;5032755;28;20033;-81